EIME

Casement Air Base Airport

Baldonnel, Ireland
TAF EIME 171400Z 1715/1724 23016KT 9999 SCT015 BKN020 TEMPO 1715/1723 24019G30KT TEMPO 1715/1716 5000 -RADZ BKN012 TEMPO 1719/1724 BKN012
Issued Valid From Valid To
Aug-17 @ 14:00 UTC
(58 minutes ago)
Aug-17 @ 15:00 UTC
(in 2 minutes)
Aug-18 @ 00:00 UTC
(in 9 hours)
Aug-17 @ 15:00 to Aug-18 @ 00:00
TAF EIME 171400Z 1715/1724 23016KT 9999 SCT015 BKN020
Wind Visibility Clouds
230° at 16 knots 10,000+ meters
  • Scattered at 1,500' AGL
  • Broken at 2,000' AGL
Temporary Aug-17 @ 15:00 to Aug-17 @ 16:00
TEMPO 1715/1716 5000 -RADZ BKN012
Visibility Clouds Conditions
5,005 meters
  • Broken at 1,200' AGL
  • Light Rain
  • Light Drizzle
Temporary Aug-17 @ 15:00 to Aug-17 @ 23:00
TEMPO 1715/1716 5000 -RADZ BKN012
Wind
240° at 19 knots
 Gusting to 30 knots
Temporary Aug-17 @ 19:00 to Aug-18 @ 00:00
TEMPO 1719/1724 BKN012
Clouds
  • Broken at 1,200' AGL
TAF EIME 171400Z 1715/1724 23016KT 9999 SCT015 BKN020 TEMPO 1715/1723 24019G30KT TEMPO 1715/1716 5000 -RADZ BKN012 TEMPO 1719/1724 BKN012
Issued Aug-17 @ 14:00 UTC
(58 minutes ago)
Valid From Aug-17 @ 15:00 UTC
(in 2 minutes)
Valid To Aug-18 @ 00:00 UTC
(in 9 hours)
Aug-17 @ 15:00 - Aug-18 @ 00:00
Wind Visibility
230° at 16 knots 10,000+ meters
Clouds
  • Scattered at 1,500' AGL
  • Broken at 2,000' AGL
Temporary Aug-17 @ 15:00 - Aug-17 @ 16:00
Clouds
  • Broken at 1,200' AGL
Conditions
  • Light Rain
  • Light Drizzle
Temporary Aug-17 @ 15:00 - Aug-17 @ 23:00
Wind
240° at 19 knots
 Gusting to 30 knots
Temporary Aug-17 @ 19:00 - Aug-18 @ 00:00
Clouds
  • Broken at 1,200' AGL